ARG2602 SAME-SACO
Flight info
| Callsign | ARG2602 |
|---|---|
| Flight time | N/A |
| Altitude | 23000 |
| Route | SALBO1G SALBO A307 ALDEX ALDEX1Q |
| Aircraft | B738/M-SDE2E3FGHIRWXY/LB1 |
Departure
| Time | 2026-04-23 09:00 |
|---|---|
| Airport | Governor Francisco Gabrielli International Airport (SAME) |
Arrival
| Time | N/A |
|---|---|
| Airport | Ingeniero Aeronáutico Ambrosio L.V. Taravella International Airport (SACO) |
| Time | Latitude | Longitude | Altitude | Speed | Heading |
|---|---|---|---|---|---|
| 2026-04-23 08:58 | -32.81959 | -68.79482 | 2377 ft | 11 kts | 24° |
| 2026-04-23 08:58 | -32.81932 | -68.79403 | 2376 ft | 11 kts | 89° |
| 2026-04-23 08:58 | -32.81932 | -68.79314 | 2374 ft | 11 kts | 90° |
| 2026-04-23 08:59 | -32.81940 | -68.79273 | 2375 ft | 5 kts | 141° |
| 2026-04-23 08:59 | -32.81966 | -68.79267 | 2375 ft | 0 kts | 179° |
| 2026-04-23 08:59 | -32.82003 | -68.79267 | 2375 ft | 28 kts | 180° |
| 2026-04-23 08:59 | -32.82463 | -68.79276 | 2379 ft | 103 kts | 181° |
| 2026-04-23 09:00 | -32.83401 | -68.79294 | 2375 ft | 165 kts | 181° |
| 2026-04-23 09:00 | -32.84651 | -68.79328 | 2819 ft | 183 kts | 182° |
| 2026-04-23 09:00 | -32.85990 | -68.79372 | 3407 ft | 202 kts | 182° |
| 2026-04-23 09:00 | -32.87435 | -68.79415 | 3948 ft | 213 kts | 181° |
| 2026-04-23 09:01 | -32.88952 | -68.79437 | 4352 ft | 233 kts | 180° |
| 2026-04-23 09:01 | -32.90649 | -68.79318 | 4713 ft | 251 kts | 165° |
| 2026-04-23 09:01 | -32.92133 | -68.78257 | 5328 ft | 253 kts | 129° |
| 2026-04-23 09:01 | -32.92914 | -68.76408 | 6006 ft | 252 kts | 99° |
| 2026-04-23 09:02 | -32.92821 | -68.74344 | 6658 ft | 252 kts | 71° |
| 2026-04-23 09:02 | -32.92163 | -68.72413 | 7292 ft | 253 kts | 62° |
| 2026-04-23 09:02 | -32.91352 | -68.70541 | 7927 ft | 255 kts | 59° |
| 2026-04-23 09:02 | -32.90506 | -68.68669 | 8578 ft | 257 kts | 59° |
| 2026-04-23 09:03 | -32.89659 | -68.66779 | 9214 ft | 259 kts | 59° |
| 2026-04-23 09:03 | -32.88816 | -68.64871 | 9873 ft | 262 kts | 59° |
| 2026-04-23 09:03 | -32.87974 | -68.62939 | 10460 ft | 264 kts | 59° |
| 2026-04-23 09:03 | -32.87127 | -68.60976 | 10977 ft | 269 kts | 59° |
| 2026-04-23 09:04 | -32.86278 | -68.58997 | 11490 ft | 273 kts | 60° |
| 2026-04-23 09:04 | -32.85410 | -68.56964 | 12012 ft | 277 kts | 60° |
| 2026-04-23 09:04 | -32.84531 | -68.54897 | 12533 ft | 282 kts | 60° |
| 2026-04-23 09:04 | -32.83639 | -68.52797 | 13041 ft | 286 kts | 60° |
| 2026-04-23 09:05 | -32.82735 | -68.50664 | 13554 ft | 290 kts | 60° |
| 2026-04-23 09:05 | -32.81819 | -68.48500 | 14052 ft | 295 kts | 60° |
| 2026-04-23 09:05 | -32.80901 | -68.46332 | 14513 ft | 298 kts | 60° |
| 2026-04-23 09:05 | -32.79961 | -68.44110 | 14981 ft | 301 kts | 60° |
| 2026-04-23 09:06 | -32.79012 | -68.41867 | 15447 ft | 305 kts | 60° |
| 2026-04-23 09:06 | -32.78062 | -68.39626 | 15895 ft | 308 kts | 60° |
| 2026-04-23 09:06 | -32.77177 | -68.37537 | 16306 ft | 311 kts | 60° |
| 2026-04-23 09:06 | -32.76207 | -68.35250 | 16741 ft | 315 kts | 60° |
| 2026-04-23 09:07 | -32.75217 | -68.32916 | 17188 ft | 318 kts | 60° |
| 2026-04-23 09:07 | -32.74213 | -68.30553 | 17633 ft | 321 kts | 60° |
| 2026-04-23 09:07 | -32.73196 | -68.28158 | 18060 ft | 325 kts | 60° |
| 2026-04-23 09:07 | -32.72171 | -68.25747 | 18474 ft | 328 kts | 60° |
| 2026-04-23 09:08 | -32.71148 | -68.23343 | 18847 ft | 331 kts | 59° |
| 2026-04-23 09:08 | -32.70101 | -68.20885 | 19230 ft | 333 kts | 59° |
| 2026-04-23 09:08 | -32.69051 | -68.18418 | 19606 ft | 336 kts | 59° |
| 2026-04-23 09:08 | -32.67991 | -68.15932 | 19971 ft | 339 kts | 59° |
| 2026-04-23 09:09 | -32.66918 | -68.13418 | 20348 ft | 341 kts | 59° |
| 2026-04-23 09:09 | -32.65844 | -68.10901 | 20717 ft | 343 kts | 59° |
| 2026-04-23 09:09 | -32.64773 | -68.08394 | 21078 ft | 346 kts | 59° |
| 2026-04-23 09:09 | -32.63678 | -68.05833 | 21426 ft | 348 kts | 59° |
| 2026-04-23 09:10 | -32.62578 | -68.03261 | 21773 ft | 351 kts | 59° |
| 2026-04-23 09:10 | -32.60352 | -67.98065 | 22470 ft | 355 kts | 58° |
| 2026-04-23 09:10 | -32.59228 | -67.95445 | 22809 ft | 357 kts | 58° |
| 2026-04-23 09:11 | -32.58097 | -67.92807 | 23139 ft | 360 kts | 58° |
| 2026-04-23 09:11 | -32.56958 | -67.90155 | 23461 ft | 362 kts | 58° |
| 2026-04-23 09:11 | -32.55812 | -67.87487 | 23770 ft | 364 kts | 58° |
| 2026-04-23 09:11 | -32.54658 | -67.84801 | 24029 ft | 366 kts | 58° |
| 2026-04-23 09:12 | -32.53499 | -67.82106 | 24296 ft | 368 kts | 58° |
| 2026-04-23 09:12 | -32.52334 | -67.79403 | 24555 ft | 369 kts | 58° |
| 2026-04-23 09:12 | -32.51171 | -67.76681 | 24812 ft | 372 kts | 59° |
| 2026-04-23 09:12 | -32.50109 | -67.73919 | 25059 ft | 375 kts | 62° |
| 2026-04-23 09:13 | -32.49124 | -67.71052 | 25297 ft | 378 kts | 64° |
| 2026-04-23 09:13 | -32.48220 | -67.68114 | 25541 ft | 380 kts | 66° |
| 2026-04-23 09:13 | -32.47342 | -67.65143 | 25775 ft | 382 kts | 66° |
| 2026-04-23 09:13 | -32.46455 | -67.62166 | 26006 ft | 384 kts | 65° |
| 2026-04-23 09:14 | -32.45864 | -67.60216 | 26130 ft | 385 kts | 65° |
| 2026-04-23 09:14 | -32.44932 | -67.57197 | 26142 ft | 389 kts | 65° |
| 2026-04-23 09:14 | -32.43984 | -67.54181 | 26142 ft | 389 kts | 64° |
| 2026-04-23 09:14 | -32.43048 | -67.51235 | 26139 ft | 386 kts | 64° |
| 2026-04-23 09:15 | -32.42088 | -67.48232 | 26135 ft | 383 kts | 64° |
| 2026-04-23 09:15 | -32.41141 | -67.45284 | 26143 ft | 383 kts | 64° |
| 2026-04-23 09:15 | -32.40189 | -67.42333 | 26146 ft | 384 kts | 64° |
| 2026-04-23 09:15 | -32.39236 | -67.39382 | 26148 ft | 384 kts | 64° |
| 2026-04-23 09:16 | -32.38291 | -67.36457 | 26150 ft | 385 kts | 64° |
| 2026-04-23 09:16 | -32.37334 | -67.33498 | 26150 ft | 385 kts | 64° |
| 2026-04-23 09:16 | -32.36378 | -67.30542 | 26152 ft | 385 kts | 64° |
| 2026-04-23 09:16 | -32.35421 | -67.27585 | 26152 ft | 386 kts | 64° |
| 2026-04-23 09:17 | -32.34456 | -67.24603 | 26153 ft | 386 kts | 64° |
| 2026-04-23 09:17 | -32.33496 | -67.21642 | 26156 ft | 386 kts | 64° |
| 2026-04-23 09:17 | -32.32534 | -67.18676 | 26160 ft | 386 kts | 64° |
| 2026-04-23 09:17 | -32.31571 | -67.15711 | 26160 ft | 386 kts | 64° |
| 2026-04-23 09:18 | -32.30607 | -67.12748 | 26153 ft | 386 kts | 64° |
| 2026-04-23 09:18 | -32.29642 | -67.09780 | 26158 ft | 386 kts | 64° |
| 2026-04-23 09:18 | -32.28680 | -67.06825 | 26156 ft | 385 kts | 64° |
| 2026-04-23 09:18 | -32.27717 | -67.03871 | 26164 ft | 385 kts | 64° |
| 2026-04-23 09:19 | -32.26765 | -67.00953 | 26165 ft | 385 kts | 64° |
| 2026-04-23 09:19 | -32.25802 | -66.98005 | 26161 ft | 385 kts | 64° |
| 2026-04-23 09:19 | -32.24839 | -66.95058 | 26161 ft | 384 kts | 64° |
| 2026-04-23 09:19 | -32.23872 | -66.92104 | 26163 ft | 384 kts | 64° |
| 2026-04-23 09:20 | -32.22909 | -66.89164 | 26163 ft | 384 kts | 64° |
| 2026-04-23 09:20 | -32.21946 | -66.86225 | 26165 ft | 383 kts | 64° |
| 2026-04-23 09:20 | -32.20983 | -66.83290 | 26165 ft | 383 kts | 64° |
| 2026-04-23 09:20 | -32.20020 | -66.80357 | 26169 ft | 383 kts | 64° |
| 2026-04-23 09:21 | -32.19057 | -66.77428 | 26170 ft | 382 kts | 64° |
| 2026-04-23 09:21 | -32.18095 | -66.74503 | 26167 ft | 382 kts | 64° |
| 2026-04-23 09:21 | -32.17131 | -66.71574 | 26167 ft | 382 kts | 64° |
| 2026-04-23 09:21 | -32.16177 | -66.68680 | 26168 ft | 382 kts | 64° |
| 2026-04-23 09:22 | -32.15200 | -66.65719 | 26168 ft | 382 kts | 64° |
| 2026-04-23 09:22 | -32.14247 | -66.62832 | 26170 ft | 382 kts | 64° |
| 2026-04-23 09:22 | -32.13281 | -66.59909 | 26172 ft | 383 kts | 64° |
| 2026-04-23 09:22 | -32.12314 | -66.56983 | 26169 ft | 383 kts | 64° |
| 2026-04-23 09:23 | -32.11344 | -66.54053 | 26169 ft | 383 kts | 64° |
| 2026-04-23 09:23 | -32.10373 | -66.51122 | 26169 ft | 383 kts | 64° |
| 2026-04-23 09:23 | -32.09399 | -66.48185 | 26168 ft | 384 kts | 64° |
| 2026-04-23 09:23 | -32.08429 | -66.45258 | 26172 ft | 384 kts | 64° |
| 2026-04-23 09:24 | -32.07456 | -66.42325 | 26170 ft | 384 kts | 64° |
| 2026-04-23 09:24 | -32.06482 | -66.39390 | 26168 ft | 384 kts | 64° |
| 2026-04-23 09:24 | -32.05510 | -66.36459 | 26168 ft | 384 kts | 64° |
| 2026-04-23 09:24 | -32.04536 | -66.33530 | 26171 ft | 384 kts | 64° |
| 2026-04-23 09:25 | -32.03571 | -66.30625 | 26170 ft | 384 kts | 63° |
| 2026-04-23 09:25 | -32.02594 | -66.27692 | 26164 ft | 384 kts | 64° |
| 2026-04-23 09:25 | -32.01618 | -66.24761 | 26164 ft | 384 kts | 63° |
| 2026-04-23 09:25 | -32.00642 | -66.21835 | 26161 ft | 383 kts | 63° |
| 2026-04-23 09:26 | -31.99666 | -66.18912 | 26164 ft | 383 kts | 63° |
| 2026-04-23 09:26 | -31.98691 | -66.15991 | 26162 ft | 383 kts | 63° |
| 2026-04-23 09:26 | -31.97713 | -66.13068 | 26163 ft | 383 kts | 63° |
| 2026-04-23 09:26 | -31.96734 | -66.10143 | 26165 ft | 383 kts | 63° |
| 2026-04-23 09:27 | -31.95755 | -66.07219 | 26164 ft | 383 kts | 63° |
| 2026-04-23 09:27 | -31.94788 | -66.04335 | 26163 ft | 383 kts | 63° |
| 2026-04-23 09:27 | -31.93808 | -66.01415 | 26165 ft | 383 kts | 63° |
| 2026-04-23 09:27 | -31.92827 | -65.98494 | 26165 ft | 383 kts | 63° |
| 2026-04-23 09:28 | -31.91849 | -65.95585 | 26160 ft | 383 kts | 63° |
| 2026-04-23 09:28 | -31.90866 | -65.92665 | 26164 ft | 383 kts | 63° |
| 2026-04-23 09:28 | -31.89884 | -65.89748 | 26161 ft | 383 kts | 63° |
| 2026-04-23 09:28 | -31.88901 | -65.86833 | 26159 ft | 383 kts | 63° |
| 2026-04-23 09:29 | -31.87920 | -65.83925 | 26161 ft | 383 kts | 63° |
| 2026-04-23 09:29 | -31.86935 | -65.81006 | 26160 ft | 383 kts | 63° |
| 2026-04-23 09:29 | -31.85951 | -65.78094 | 26162 ft | 383 kts | 63° |
| 2026-04-23 09:29 | -31.84964 | -65.75177 | 26158 ft | 383 kts | 63° |
| 2026-04-23 09:30 | -31.83989 | -65.72298 | 26158 ft | 383 kts | 63° |
| 2026-04-23 09:30 | -31.83004 | -65.69392 | 26162 ft | 383 kts | 63° |
| 2026-04-23 09:30 | -31.82014 | -65.66471 | 26159 ft | 383 kts | 63° |
| 2026-04-23 09:30 | -31.81029 | -65.63569 | 26154 ft | 382 kts | 63° |
| 2026-04-23 09:31 | -31.80041 | -65.60662 | 26157 ft | 382 kts | 63° |
| 2026-04-23 09:31 | -31.79054 | -65.57759 | 26159 ft | 382 kts | 63° |
| 2026-04-23 09:31 | -31.78076 | -65.54888 | 26157 ft | 382 kts | 63° |
| 2026-04-23 09:31 | -31.77088 | -65.51986 | 26158 ft | 382 kts | 63° |
| 2026-04-23 09:32 | -31.76103 | -65.49097 | 26158 ft | 382 kts | 63° |
| 2026-04-23 09:32 | -31.75110 | -65.46185 | 26160 ft | 382 kts | 63° |
| 2026-04-23 09:32 | -31.74118 | -65.43283 | 26160 ft | 382 kts | 63° |
| 2026-04-23 09:32 | -31.73130 | -65.40393 | 26165 ft | 382 kts | 63° |
| 2026-04-23 09:33 | -31.72137 | -65.37490 | 26166 ft | 382 kts | 63° |
| 2026-04-23 09:33 | -31.71146 | -65.34595 | 26161 ft | 382 kts | 63° |
| 2026-04-23 09:33 | -31.70153 | -65.31696 | 26163 ft | 382 kts | 63° |
| 2026-04-23 09:33 | -31.69163 | -65.28810 | 26168 ft | 382 kts | 63° |
| 2026-04-23 09:34 | -31.68166 | -65.25904 | 26167 ft | 382 kts | 63° |
| 2026-04-23 09:34 | -31.67172 | -65.23010 | 26178 ft | 382 kts | 63° |
| 2026-04-23 09:34 | -31.66149 | -65.20134 | 26159 ft | 379 kts | 59° |
| 2026-04-23 09:34 | -31.64859 | -65.17581 | 26069 ft | 355 kts | 44° |
| 2026-04-23 09:35 | -31.63203 | -65.15568 | 25976 ft | 333 kts | 35° |
| 2026-04-23 09:35 | -31.61511 | -65.13818 | 25767 ft | 317 kts | 33° |
| 2026-04-23 09:35 | -31.59864 | -65.12146 | 25252 ft | 313 kts | 33° |
| 2026-04-23 09:35 | -31.58234 | -65.10445 | 24809 ft | 308 kts | 35° |
| 2026-04-23 09:36 | -31.56715 | -65.08787 | 24708 ft | 290 kts | 36° |
| 2026-04-23 09:36 | -31.55273 | -65.07177 | 24373 ft | 285 kts | 36° |
| 2026-04-23 09:36 | -31.53837 | -65.05561 | 23948 ft | 287 kts | 37° |
| 2026-04-23 09:36 | -31.52379 | -65.03916 | 23287 ft | 296 kts | 37° |